sensor_id;sensor_type;location;lat;lon;timestamp;P1;durP1;ratioP1;P2;durP2;ratioP2
12597;SDS011;6364;53.590;9.956;2023-03-31T00:01:02;37.78;;;8.65;;
12597;SDS011;6364;53.590;9.956;2023-03-31T00:03:28;34.25;;;8.35;;
12597;SDS011;6364;53.590;9.956;2023-03-31T00:05:57;37.13;;;7.65;;
12597;SDS011;6364;53.590;9.956;2023-03-31T00:08:23;38.63;;;8.43;;
12597;SDS011;6364;53.590;9.956;2023-03-31T00:10:49;44.15;;;7.68;;
12597;SDS011;6364;53.590;9.956;2023-03-31T00:13:15;36.65;;;7.30;;
12597;SDS011;6364;53.590;9.956;2023-03-31T00:15:40;31.77;;;6.90;;
12597;SDS011;6364;53.590;9.956;2023-03-31T00:18:05;32.35;;;7.65;;
12597;SDS011;6364;53.590;9.956;2023-03-31T00:20:31;40.88;;;7.57;;
12597;SDS011;6364;53.590;9.956;2023-03-31T00:22:57;33.63;;;7.53;;
12597;SDS011;6364;53.590;9.956;2023-03-31T00:25:23;40.65;;;7.70;;
12597;SDS011;6364;53.590;9.956;2023-03-31T00:27:48;36.75;;;6.88;;
12597;SDS011;6364;53.590;9.956;2023-03-31T00:30:17;46.17;;;8.45;;
12597;SDS011;6364;53.590;9.956;2023-03-31T00:32:42;30.45;;;6.13;;
12597;SDS011;6364;53.590;9.956;2023-03-31T00:35:08;34.45;;;5.75;;
12597;SDS011;6364;53.590;9.956;2023-03-31T00:37:33;34.90;;;5.93;;
12597;SDS011;6364;53.590;9.956;2023-03-31T00:39:59;37.33;;;5.95;;
12597;SDS011;6364;53.590;9.956;2023-03-31T00:42:24;27.05;;;6.53;;
12597;SDS011;6364;53.590;9.956;2023-03-31T00:47:38;40.78;;;6.60;;
12597;SDS011;6364;53.590;9.956;2023-03-31T00:50:05;32.78;;;4.97;;
12597;SDS011;6364;53.590;9.956;2023-03-31T00:52:39;24.05;;;5.05;;
12597;SDS011;6364;53.590;9.956;2023-03-31T00:55:09;40.88;;;6.10;;
12597;SDS011;6364;53.590;9.956;2023-03-31T00:57:39;40.42;;;5.13;;
12597;SDS011;6364;53.590;9.956;2023-03-31T01:00:07;33.17;;;4.65;;
12597;SDS011;6364;53.590;9.956;2023-03-31T01:02:45;34.45;;;5.35;;
12597;SDS011;6364;53.590;9.956;2023-03-31T01:05:21;40.80;;;6.28;;
12597;SDS011;6364;53.590;9.956;2023-03-31T01:07:51;32.13;;;5.13;;
12597;SDS011;6364;53.590;9.956;2023-03-31T01:10:18;34.25;;;5.32;;
12597;SDS011;6364;53.590;9.956;2023-03-31T01:12:44;27.23;;;4.60;;
12597;SDS011;6364;53.590;9.956;2023-03-31T01:15:11;40.53;;;5.35;;
12597;SDS011;6364;53.590;9.956;2023-03-31T01:17:37;34.95;;;5.50;;
12597;SDS011;6364;53.590;9.956;2023-03-31T01:22:43;34.28;;;5.85;;
12597;SDS011;6364;53.590;9.956;2023-03-31T01:34:00;37.95;;;5.18;;
12597;SDS011;6364;53.590;9.956;2023-03-31T01:39:41;30.40;;;5.28;;
12597;SDS011;6364;53.590;9.956;2023-03-31T01:48:28;31.42;;;4.65;;
12597;SDS011;6364;53.590;9.956;2023-03-31T01:51:15;33.45;;;4.60;;
12597;SDS011;6364;53.590;9.956;2023-03-31T01:53:50;27.83;;;4.57;;
12597;SDS011;6364;53.590;9.956;2023-03-31T01:56:29;30.92;;;5.22;;
12597;SDS011;6364;53.590;9.956;2023-03-31T01:59:07;24.52;;;4.70;;
12597;SDS011;6364;53.590;9.956;2023-03-31T02:01:37;29.52;;;4.85;;
12597;SDS011;6364;53.590;9.956;2023-03-31T02:06:35;34.38;;;4.90;;
12597;SDS011;6364;53.590;9.956;2023-03-31T02:09:05;20.27;;;4.60;;
12597;SDS011;6364;53.590;9.956;2023-03-31T02:11:34;25.38;;;4.55;;
12597;SDS011;6364;53.590;9.956;2023-03-31T02:14:01;23.98;;;4.65;;
12597;SDS011;6364;53.590;9.956;2023-03-31T02:16:29;32.67;;;5.30;;
12597;SDS011;6364;53.590;9.956;2023-03-31T02:18:57;19.08;;;4.65;;
12597;SDS011;6364;53.590;9.956;2023-03-31T02:21:36;27.63;;;5.50;;
12597;SDS011;6364;53.590;9.956;2023-03-31T02:24:05;19.67;;;5.30;;
12597;SDS011;6364;53.590;9.956;2023-03-31T02:26:34;23.77;;;6.03;;
12597;SDS011;6364;53.590;9.956;2023-03-31T02:29:01;27.50;;;5.38;;
12597;SDS011;6364;53.590;9.956;2023-03-31T02:34:13;18.95;;;5.25;;
12597;SDS011;6364;53.590;9.956;2023-03-31T02:36:39;27.63;;;6.03;;
12597;SDS011;6364;53.590;9.956;2023-03-31T02:39:07;20.00;;;5.10;;
12597;SDS011;6364;53.590;9.956;2023-03-31T02:41:34;25.73;;;6.18;;
12597;SDS011;6364;53.590;9.956;2023-03-31T02:44:00;23.95;;;5.45;;
12597;SDS011;6364;53.590;9.956;2023-03-31T02:46:25;27.95;;;5.50;;
12597;SDS011;6364;53.590;9.956;2023-03-31T02:48:52;26.65;;;6.57;;
12597;SDS011;6364;53.590;9.956;2023-03-31T02:57:09;24.13;;;5.78;;
12597;SDS011;6364;53.590;9.956;2023-03-31T03:02:21;22.05;;;6.22;;
12597;SDS011;6364;53.590;9.956;2023-03-31T03:05:21;17.63;;;6.40;;
12597;SDS011;6364;53.590;9.956;2023-03-31T03:10:50;21.02;;;6.82;;
12597;SDS011;6364;53.590;9.956;2023-03-31T03:16:21;20.98;;;6.45;;
12597;SDS011;6364;53.590;9.956;2023-03-31T03:18:59;23.10;;;7.05;;
12597;SDS011;6364;53.590;9.956;2023-03-31T03:21:27;19.27;;;6.50;;
12597;SDS011;6364;53.590;9.956;2023-03-31T03:23:52;20.40;;;6.85;;
12597;SDS011;6364;53.590;9.956;2023-03-31T03:26:18;27.45;;;7.38;;
12597;SDS011;6364;53.590;9.956;2023-03-31T03:28:51;23.65;;;6.78;;
12597;SDS011;6364;53.590;9.956;2023-03-31T03:31:16;18.80;;;6.88;;
12597;SDS011;6364;53.590;9.956;2023-03-31T03:33:42;22.05;;;6.97;;
12597;SDS011;6364;53.590;9.956;2023-03-31T03:36:07;28.30;;;7.30;;
12597;SDS011;6364;53.590;9.956;2023-03-31T03:38:33;25.75;;;7.00;;
12597;SDS011;6364;53.590;9.956;2023-03-31T03:40:58;25.27;;;7.22;;
12597;SDS011;6364;53.590;9.956;2023-03-31T03:43:24;23.25;;;7.43;;
12597;SDS011;6364;53.590;9.956;2023-03-31T03:45:50;19.02;;;7.65;;
12597;SDS011;6364;53.590;9.956;2023-03-31T03:48:16;24.08;;;7.28;;
12597;SDS011;6364;53.590;9.956;2023-03-31T03:50:41;19.40;;;7.22;;
12597;SDS011;6364;53.590;9.956;2023-03-31T03:53:07;19.65;;;7.18;;
12597;SDS011;6364;53.590;9.956;2023-03-31T03:55:32;19.08;;;7.10;;
12597;SDS011;6364;53.590;9.956;2023-03-31T03:57:58;18.02;;;6.90;;
12597;SDS011;6364;53.590;9.956;2023-03-31T04:00:23;30.70;;;7.70;;
12597;SDS011;6364;53.590;9.956;2023-03-31T04:02:49;15.73;;;7.55;;
12597;SDS011;6364;53.590;9.956;2023-03-31T04:05:14;22.27;;;7.88;;
12597;SDS011;6364;53.590;9.956;2023-03-31T04:07:40;22.67;;;7.38;;
12597;SDS011;6364;53.590;9.956;2023-03-31T04:10:05;25.70;;;7.95;;
12597;SDS011;6364;53.590;9.956;2023-03-31T04:12:32;22.20;;;7.50;;
12597;SDS011;6364;53.590;9.956;2023-03-31T04:14:58;20.08;;;7.22;;
12597;SDS011;6364;53.590;9.956;2023-03-31T04:17:24;20.52;;;7.95;;
12597;SDS011;6364;53.590;9.956;2023-03-31T04:19:56;22.80;;;7.07;;
12597;SDS011;6364;53.590;9.956;2023-03-31T04:22:26;22.20;;;8.35;;
12597;SDS011;6364;53.590;9.956;2023-03-31T04:24:53;22.88;;;7.93;;
12597;SDS011;6364;53.590;9.956;2023-03-31T04:27:23;20.52;;;7.35;;
12597;SDS011;6364;53.590;9.956;2023-03-31T04:29:51;23.27;;;7.60;;
12597;SDS011;6364;53.590;9.956;2023-03-31T04:32:18;20.80;;;8.90;;
12597;SDS011;6364;53.590;9.956;2023-03-31T04:34:45;21.83;;;9.48;;
12597;SDS011;6364;53.590;9.956;2023-03-31T04:37:11;34.22;;;9.05;;
12597;SDS011;6364;53.590;9.956;2023-03-31T04:39:36;22.10;;;8.60;;
12597;SDS011;6364;53.590;9.956;2023-03-31T04:42:02;25.98;;;10.00;;
12597;SDS011;6364;53.590;9.956;2023-03-31T04:44:27;25.92;;;9.57;;
12597;SDS011;6364;53.590;9.956;2023-03-31T04:46:53;23.73;;;9.45;;
12597;SDS011;6364;53.590;9.956;2023-03-31T04:49:19;26.65;;;10.20;;
12597;SDS011;6364;53.590;9.956;2023-03-31T04:51:44;26.80;;;10.13;;
12597;SDS011;6364;53.590;9.956;2023-03-31T04:54:09;24.38;;;9.77;;
12597;SDS011;6364;53.590;9.956;2023-03-31T04:56:35;26.88;;;10.32;;
12597;SDS011;6364;53.590;9.956;2023-03-31T04:59:00;34.67;;;11.00;;
12597;SDS011;6364;53.590;9.956;2023-03-31T05:01:27;29.77;;;10.48;;
12597;SDS011;6364;53.590;9.956;2023-03-31T05:03:56;26.42;;;11.05;;
12597;SDS011;6364;53.590;9.956;2023-03-31T05:06:22;35.42;;;11.43;;
12597;SDS011;6364;53.590;9.956;2023-03-31T05:08:47;24.13;;;10.85;;
12597;SDS011;6364;53.590;9.956;2023-03-31T05:11:12;22.50;;;10.27;;
12597;SDS011;6364;53.590;9.956;2023-03-31T05:13:38;26.25;;;11.57;;
12597;SDS011;6364;53.590;9.956;2023-03-31T05:16:07;25.48;;;11.57;;
12597;SDS011;6364;53.590;9.956;2023-03-31T05:18:33;26.02;;;10.35;;
12597;SDS011;6364;53.590;9.956;2023-03-31T05:21:07;30.15;;;11.70;;
12597;SDS011;6364;53.590;9.956;2023-03-31T05:23:38;28.02;;;10.80;;
12597;SDS011;6364;53.590;9.956;2023-03-31T05:26:03;32.28;;;10.93;;
12597;SDS011;6364;53.590;9.956;2023-03-31T05:28:28;29.85;;;11.43;;
12597;SDS011;6364;53.590;9.956;2023-03-31T05:30:54;31.58;;;10.43;;
12597;SDS011;6364;53.590;9.956;2023-03-31T05:33:19;28.88;;;11.63;;
12597;SDS011;6364;53.590;9.956;2023-03-31T05:35:44;24.65;;;11.38;;
12597;SDS011;6364;53.590;9.956;2023-03-31T05:38:10;23.42;;;10.68;;
12597;SDS011;6364;53.590;9.956;2023-03-31T05:40:35;25.88;;;10.80;;
12597;SDS011;6364;53.590;9.956;2023-03-31T05:43:01;22.40;;;10.68;;
12597;SDS011;6364;53.590;9.956;2023-03-31T05:45:26;30.27;;;11.50;;
12597;SDS011;6364;53.590;9.956;2023-03-31T05:47:51;27.17;;;10.75;;
12597;SDS011;6364;53.590;9.956;2023-03-31T05:50:16;28.52;;;10.40;;
12597;SDS011;6364;53.590;9.956;2023-03-31T05:52:42;29.38;;;10.02;;
12597;SDS011;6364;53.590;9.956;2023-03-31T05:55:07;27.25;;;10.60;;
12597;SDS011;6364;53.590;9.956;2023-03-31T05:57:33;27.25;;;10.88;;
12597;SDS011;6364;53.590;9.956;2023-03-31T05:59:58;26.95;;;9.98;;
12597;SDS011;6364;53.590;9.956;2023-03-31T06:02:24;21.83;;;9.20;;
12597;SDS011;6364;53.590;9.956;2023-03-31T06:04:49;31.08;;;11.70;;
12597;SDS011;6364;53.590;9.956;2023-03-31T06:07:16;28.58;;;10.75;;
12597;SDS011;6364;53.590;9.956;2023-03-31T06:09:41;25.77;;;9.50;;
12597;SDS011;6364;53.590;9.956;2023-03-31T06:12:07;25.23;;;9.57;;
12597;SDS011;6364;53.590;9.956;2023-03-31T06:14:32;29.17;;;9.60;;
12597;SDS011;6364;53.590;9.956;2023-03-31T06:16:57;22.13;;;9.02;;
12597;SDS011;6364;53.590;9.956;2023-03-31T06:19:23;23.17;;;9.05;;
12597;SDS011;6364;53.590;9.956;2023-03-31T06:21:48;22.00;;;8.70;;
12597;SDS011;6364;53.590;9.956;2023-03-31T06:24:14;23.58;;;9.02;;
12597;SDS011;6364;53.590;9.956;2023-03-31T06:26:39;27.55;;;10.02;;
12597;SDS011;6364;53.590;9.956;2023-03-31T06:29:05;28.13;;;8.93;;
12597;SDS011;6364;53.590;9.956;2023-03-31T06:31:30;22.00;;;8.50;;
12597;SDS011;6364;53.590;9.956;2023-03-31T06:33:56;24.50;;;8.40;;
12597;SDS011;6364;53.590;9.956;2023-03-31T06:36:21;24.70;;;9.80;;
12597;SDS011;6364;53.590;9.956;2023-03-31T06:38:47;16.20;;;9.50;;
12597;SDS011;6364;53.590;9.956;2023-03-31T06:41:13;23.35;;;8.85;;
12597;SDS011;6364;53.590;9.956;2023-03-31T06:43:39;30.73;;;8.30;;
12597;SDS011;6364;53.590;9.956;2023-03-31T06:46:05;25.27;;;8.73;;
12597;SDS011;6364;53.590;9.956;2023-03-31T06:48:30;23.70;;;8.65;;
12597;SDS011;6364;53.590;9.956;2023-03-31T06:50:58;19.13;;;8.38;;
12597;SDS011;6364;53.590;9.956;2023-03-31T06:53:24;17.80;;;8.35;;
12597;SDS011;6364;53.590;9.956;2023-03-31T06:55:50;20.98;;;7.90;;
12597;SDS011;6364;53.590;9.956;2023-03-31T06:58:15;24.25;;;8.20;;
12597;SDS011;6364;53.590;9.956;2023-03-31T07:00:41;20.33;;;8.30;;
12597;SDS011;6364;53.590;9.956;2023-03-31T07:03:06;17.95;;;7.95;;
12597;SDS011;6364;53.590;9.956;2023-03-31T07:05:32;19.33;;;7.72;;
12597;SDS011;6364;53.590;9.956;2023-03-31T07:07:58;22.45;;;8.32;;
12597;SDS011;6364;53.590;9.956;2023-03-31T07:10:26;29.20;;;9.50;;
12597;SDS011;6364;53.590;9.956;2023-03-31T07:12:52;16.65;;;7.60;;
12597;SDS011;6364;53.590;9.956;2023-03-31T07:15:18;23.13;;;8.25;;
12597;SDS011;6364;53.590;9.956;2023-03-31T07:17:43;23.70;;;7.63;;
12597;SDS011;6364;53.590;9.956;2023-03-31T07:20:09;20.08;;;8.20;;
12597;SDS011;6364;53.590;9.956;2023-03-31T07:22:37;16.42;;;7.53;;
12597;SDS011;6364;53.590;9.956;2023-03-31T07:25:02;20.58;;;7.88;;
12597;SDS011;6364;53.590;9.956;2023-03-31T07:27:28;22.65;;;7.88;;
12597;SDS011;6364;53.590;9.956;2023-03-31T07:29:53;20.50;;;7.20;;
12597;SDS011;6364;53.590;9.956;2023-03-31T07:32:19;15.02;;;7.78;;
12597;SDS011;6364;53.590;9.956;2023-03-31T07:34:46;20.73;;;7.65;;
12597;SDS011;6364;53.590;9.956;2023-03-31T07:37:11;17.55;;;6.57;;
12597;SDS011;6364;53.590;9.956;2023-03-31T07:39:36;16.52;;;6.93;;
12597;SDS011;6364;53.590;9.956;2023-03-31T07:42:03;17.05;;;7.15;;
12597;SDS011;6364;53.590;9.956;2023-03-31T07:44:28;18.63;;;7.50;;
12597;SDS011;6364;53.590;9.956;2023-03-31T07:46:53;20.65;;;7.32;;
12597;SDS011;6364;53.590;9.956;2023-03-31T07:49:19;14.75;;;7.03;;
12597;SDS011;6364;53.590;9.956;2023-03-31T07:51:45;17.27;;;6.35;;
12597;SDS011;6364;53.590;9.956;2023-03-31T07:54:10;17.10;;;6.05;;
12597;SDS011;6364;53.590;9.956;2023-03-31T07:56:35;10.30;;;5.85;;
12597;SDS011;6364;53.590;9.956;2023-03-31T07:59:00;14.35;;;6.25;;
12597;SDS011;6364;53.590;9.956;2023-03-31T08:01:26;11.75;;;5.38;;
12597;SDS011;6364;53.590;9.956;2023-03-31T08:03:53;15.75;;;6.40;;
12597;SDS011;6364;53.590;9.956;2023-03-31T08:06:20;14.48;;;6.10;;
12597;SDS011;6364;53.590;9.956;2023-03-31T08:08:46;12.88;;;6.07;;
12597;SDS011;6364;53.590;9.956;2023-03-31T08:11:12;12.68;;;6.03;;
12597;SDS011;6364;53.590;9.956;2023-03-31T08:13:38;15.55;;;6.13;;
12597;SDS011;6364;53.590;9.956;2023-03-31T08:16:03;14.82;;;6.25;;
12597;SDS011;6364;53.590;9.956;2023-03-31T08:18:28;14.18;;;6.65;;
12597;SDS011;6364;53.590;9.956;2023-03-31T08:20:54;15.93;;;7.07;;
12597;SDS011;6364;53.590;9.956;2023-03-31T08:23:19;12.55;;;6.63;;
12597;SDS011;6364;53.590;9.956;2023-03-31T08:25:45;22.15;;;7.93;;
12597;SDS011;6364;53.590;9.956;2023-03-31T08:28:10;15.32;;;7.80;;
12597;SDS011;6364;53.590;9.956;2023-03-31T08:30:38;18.50;;;9.20;;
12597;SDS011;6364;53.590;9.956;2023-03-31T08:33:06;18.65;;;8.13;;
12597;SDS011;6364;53.590;9.956;2023-03-31T08:35:32;16.25;;;6.95;;
12597;SDS011;6364;53.590;9.956;2023-03-31T08:37:58;14.57;;;6.97;;
12597;SDS011;6364;53.590;9.956;2023-03-31T08:40:24;14.90;;;6.82;;
12597;SDS011;6364;53.590;9.956;2023-03-31T08:42:55;12.98;;;7.32;;
12597;SDS011;6364;53.590;9.956;2023-03-31T08:45:35;12.95;;;6.93;;
12597;SDS011;6364;53.590;9.956;2023-03-31T08:48:23;13.18;;;6.63;;
12597;SDS011;6364;53.590;9.956;2023-03-31T08:50:53;17.23;;;6.57;;
12597;SDS011;6364;53.590;9.956;2023-03-31T08:56:15;13.35;;;6.47;;
12597;SDS011;6364;53.590;9.956;2023-03-31T09:03:46;10.52;;;5.80;;
12597;SDS011;6364;53.590;9.956;2023-03-31T09:09:42;15.93;;;6.72;;
12597;SDS011;6364;53.590;9.956;2023-03-31T09:15:01;14.73;;;6.25;;
12597;SDS011;6364;53.590;9.956;2023-03-31T09:20:06;9.90;;;5.93;;
12597;SDS011;6364;53.590;9.956;2023-03-31T09:22:39;11.13;;;5.85;;
12597;SDS011;6364;53.590;9.956;2023-03-31T09:25:19;15.05;;;6.60;;
12597;SDS011;6364;53.590;9.956;2023-03-31T09:27:48;11.07;;;6.35;;
12597;SDS011;6364;53.590;9.956;2023-03-31T09:30:19;13.30;;;5.57;;
12597;SDS011;6364;53.590;9.956;2023-03-31T09:32:51;10.05;;;5.43;;
12597;SDS011;6364;53.590;9.956;2023-03-31T09:37:49;12.43;;;5.88;;
12597;SDS011;6364;53.590;9.956;2023-03-31T09:40:19;11.23;;;5.28;;
12597;SDS011;6364;53.590;9.956;2023-03-31T09:42:47;12.32;;;5.45;;
12597;SDS011;6364;53.590;9.956;2023-03-31T09:45:32;15.45;;;5.47;;
12597;SDS011;6364;53.590;9.956;2023-03-31T09:48:06;10.70;;;5.22;;
12597;SDS011;6364;53.590;9.956;2023-03-31T09:50:42;7.72;;;4.80;;
12597;SDS011;6364;53.590;9.956;2023-03-31T09:53:57;9.80;;;5.47;;
12597;SDS011;6364;53.590;9.956;2023-03-31T09:56:06;13.13;;;5.30;;
12597;SDS011;6364;53.590;9.956;2023-03-31T09:58:39;9.80;;;5.20;;
12597;SDS011;6364;53.590;9.956;2023-03-31T10:01:09;9.30;;;5.70;;
12597;SDS011;6364;53.590;9.956;2023-03-31T10:03:46;10.45;;;5.68;;
12597;SDS011;6364;53.590;9.956;2023-03-31T10:06:17;14.18;;;5.90;;
12597;SDS011;6364;53.590;9.956;2023-03-31T10:08:48;12.00;;;6.18;;
12597;SDS011;6364;53.590;9.956;2023-03-31T10:11:15;14.73;;;5.95;;
12597;SDS011;6364;53.590;9.956;2023-03-31T10:16:44;11.05;;;5.28;;
12597;SDS011;6364;53.590;9.956;2023-03-31T10:19:16;11.00;;;5.43;;
12597;SDS011;6364;53.590;9.956;2023-03-31T10:21:45;14.57;;;6.78;;
12597;SDS011;6364;53.590;9.956;2023-03-31T10:24:16;12.25;;;5.80;;
12597;SDS011;6364;53.590;9.956;2023-03-31T10:26:42;13.00;;;6.50;;
12597;SDS011;6364;53.590;9.956;2023-03-31T10:29:15;16.80;;;6.97;;
12597;SDS011;6364;53.590;9.956;2023-03-31T10:31:46;13.35;;;6.30;;
12597;SDS011;6364;53.590;9.956;2023-03-31T10:34:12;11.50;;;6.72;;
12597;SDS011;6364;53.590;9.956;2023-03-31T10:36:43;12.20;;;6.40;;
12597;SDS011;6364;53.590;9.956;2023-03-31T10:39:10;14.07;;;6.40;;
12597;SDS011;6364;53.590;9.956;2023-03-31T10:41:39;13.95;;;6.10;;
12597;SDS011;6364;53.590;9.956;2023-03-31T10:44:05;11.77;;;5.53;;
12597;SDS011;6364;53.590;9.956;2023-03-31T10:46:40;10.98;;;6.07;;
12597;SDS011;6364;53.590;9.956;2023-03-31T10:51:57;16.08;;;6.72;;
12597;SDS011;6364;53.590;9.956;2023-03-31T10:54:25;12.73;;;6.25;;
12597;SDS011;6364;53.590;9.956;2023-03-31T10:56:51;12.75;;;6.55;;
12597;SDS011;6364;53.590;9.956;2023-03-31T11:02:43;12.07;;;5.40;;
12597;SDS011;6364;53.590;9.956;2023-03-31T11:08:04;9.70;;;6.03;;
12597;SDS011;6364;53.590;9.956;2023-03-31T11:10:46;10.50;;;5.38;;
12597;SDS011;6364;53.590;9.956;2023-03-31T11:13:35;12.07;;;5.65;;
12597;SDS011;6364;53.590;9.956;2023-03-31T11:16:28;12.52;;;5.82;;
12597;SDS011;6364;53.590;9.956;2023-03-31T11:25:00;11.95;;;5.45;;
12597;SDS011;6364;53.590;9.956;2023-03-31T11:28:23;7.40;;;4.60;;
12597;SDS011;6364;53.590;9.956;2023-03-31T11:30:42;10.45;;;4.88;;
12597;SDS011;6364;53.590;9.956;2023-03-31T11:33:45;11.75;;;4.07;;
12597;SDS011;6364;53.590;9.956;2023-03-31T11:41:43;9.50;;;3.95;;
12597;SDS011;6364;53.590;9.956;2023-03-31T11:46:43;9.48;;;3.47;;
12597;SDS011;6364;53.590;9.956;2023-03-31T11:49:23;9.90;;;3.45;;
12597;SDS011;6364;53.590;9.956;2023-03-31T11:51:52;10.90;;;3.30;;
12597;SDS011;6364;53.590;9.956;2023-03-31T11:54:28;10.73;;;4.00;;
12597;SDS011;6364;53.590;9.956;2023-03-31T11:56:57;10.68;;;3.63;;
12597;SDS011;6364;53.590;9.956;2023-03-31T11:59:26;9.52;;;4.47;;
12597;SDS011;6364;53.590;9.956;2023-03-31T12:01:56;8.18;;;3.65;;
12597;SDS011;6364;53.590;9.956;2023-03-31T12:04:31;8.98;;;3.92;;
12597;SDS011;6364;53.590;9.956;2023-03-31T12:07:20;10.55;;;4.68;;
12597;SDS011;6364;53.590;9.956;2023-03-31T12:12:42;10.63;;;4.15;;
12597;SDS011;6364;53.590;9.956;2023-03-31T12:15:24;7.32;;;3.30;;
12597;SDS011;6364;53.590;9.956;2023-03-31T12:18:07;9.60;;;4.22;;
12597;SDS011;6364;53.590;9.956;2023-03-31T12:20:38;8.05;;;4.28;;
12597;SDS011;6364;53.590;9.956;2023-03-31T12:23:10;9.15;;;4.60;;
12597;SDS011;6364;53.590;9.956;2023-03-31T12:28:20;10.20;;;4.78;;
12597;SDS011;6364;53.590;9.956;2023-03-31T12:30:46;8.38;;;3.88;;
12597;SDS011;6364;53.590;9.956;2023-03-31T12:33:19;7.50;;;4.10;;
12597;SDS011;6364;53.590;9.956;2023-03-31T12:38:35;9.07;;;6.78;;
12597;SDS011;6364;53.590;9.956;2023-03-31T12:44:09;13.95;;;7.35;;
12597;SDS011;6364;53.590;9.956;2023-03-31T12:49:19;12.57;;;6.25;;
12597;SDS011;6364;53.590;9.956;2023-03-31T12:54:35;14.68;;;6.25;;
12597;SDS011;6364;53.590;9.956;2023-03-31T12:57:23;14.90;;;6.07;;
12597;SDS011;6364;53.590;9.956;2023-03-31T13:00:32;13.48;;;7.35;;
12597;SDS011;6364;53.590;9.956;2023-03-31T13:02:45;11.60;;;6.65;;
12597;SDS011;6364;53.590;9.956;2023-03-31T13:08:05;11.67;;;7.03;;
12597;SDS011;6364;53.590;9.956;2023-03-31T13:10:32;17.08;;;7.43;;
12597;SDS011;6364;53.590;9.956;2023-03-31T13:13:04;14.52;;;7.93;;
12597;SDS011;6364;53.590;9.956;2023-03-31T13:15:31;13.60;;;8.13;;
12597;SDS011;6364;53.590;9.956;2023-03-31T13:18:01;11.65;;;7.38;;
12597;SDS011;6364;53.590;9.956;2023-03-31T13:20:31;12.55;;;7.88;;
12597;SDS011;6364;53.590;9.956;2023-03-31T13:23:13;13.85;;;7.07;;
12597;SDS011;6364;53.590;9.956;2023-03-31T13:30:51;10.43;;;6.85;;
12597;SDS011;6364;53.590;9.956;2023-03-31T13:33:18;12.38;;;6.22;;
12597;SDS011;6364;53.590;9.956;2023-03-31T13:35:46;12.38;;;6.68;;
12597;SDS011;6364;53.590;9.956;2023-03-31T13:50:04;9.95;;;6.55;;
12597;SDS011;6364;53.590;9.956;2023-03-31T13:53:07;9.82;;;6.25;;
12597;SDS011;6364;53.590;9.956;2023-03-31T14:01:55;8.70;;;5.15;;
12597;SDS011;6364;53.590;9.956;2023-03-31T14:04:45;10.70;;;5.28;;
12597;SDS011;6364;53.590;9.956;2023-03-31T14:07:31;10.63;;;5.20;;
12597;SDS011;6364;53.590;9.956;2023-03-31T14:10:01;8.98;;;4.95;;
12597;SDS011;6364;53.590;9.956;2023-03-31T14:15:00;5.75;;;3.90;;
12597;SDS011;6364;53.590;9.956;2023-03-31T14:17:27;5.20;;;3.28;;
12597;SDS011;6364;53.590;9.956;2023-03-31T14:31:14;5.32;;;3.33;;
12597;SDS011;6364;53.590;9.956;2023-03-31T14:33:56;4.93;;;2.80;;
12597;SDS011;6364;53.590;9.956;2023-03-31T14:36:38;5.53;;;2.83;;
12597;SDS011;6364;53.590;9.956;2023-03-31T14:39:26;4.03;;;2.90;;
12597;SDS011;6364;53.590;9.956;2023-03-31T14:42:09;7.63;;;3.70;;
12597;SDS011;6364;53.590;9.956;2023-03-31T14:44:39;8.45;;;3.80;;
12597;SDS011;6364;53.590;9.956;2023-03-31T14:47:11;5.95;;;3.22;;
12597;SDS011;6364;53.590;9.956;2023-03-31T14:49:47;5.65;;;2.95;;
12597;SDS011;6364;53.590;9.956;2023-03-31T14:52:23;5.93;;;3.50;;
12597;SDS011;6364;53.590;9.956;2023-03-31T14:54:49;8.35;;;3.45;;
12597;SDS011;6364;53.590;9.956;2023-03-31T14:57:17;5.72;;;3.10;;
12597;SDS011;6364;53.590;9.956;2023-03-31T14:59:45;6.45;;;3.00;;
12597;SDS011;6364;53.590;9.956;2023-03-31T15:02:29;6.25;;;3.30;;
12597;SDS011;6364;53.590;9.956;2023-03-31T15:04:56;3.28;;;2.90;;
12597;SDS011;6364;53.590;9.956;2023-03-31T15:07:21;4.47;;;2.88;;
12597;SDS011;6364;53.590;9.956;2023-03-31T15:09:48;9.32;;;3.00;;
12597;SDS011;6364;53.590;9.956;2023-03-31T15:12:14;4.88;;;3.03;;
12597;SDS011;6364;53.590;9.956;2023-03-31T15:14:43;5.80;;;2.95;;
12597;SDS011;6364;53.590;9.956;2023-03-31T15:17:21;5.78;;;2.42;;
12597;SDS011;6364;53.590;9.956;2023-03-31T15:19:54;5.78;;;2.72;;
12597;SDS011;6364;53.590;9.956;2023-03-31T15:22:24;3.97;;;2.90;;
12597;SDS011;6364;53.590;9.956;2023-03-31T15:24:51;3.53;;;2.25;;
12597;SDS011;6364;53.590;9.956;2023-03-31T15:29:43;4.80;;;2.25;;
12597;SDS011;6364;53.590;9.956;2023-03-31T15:32:16;3.47;;;2.22;;
12597;SDS011;6364;53.590;9.956;2023-03-31T15:34:48;4.50;;;2.00;;
12597;SDS011;6364;53.590;9.956;2023-03-31T15:37:14;4.57;;;2.40;;
12597;SDS011;6364;53.590;9.956;2023-03-31T15:39:42;3.85;;;2.00;;
12597;SDS011;6364;53.590;9.956;2023-03-31T15:42:09;4.30;;;2.13;;
12597;SDS011;6364;53.590;9.956;2023-03-31T15:47:15;2.50;;;1.95;;
12597;SDS011;6364;53.590;9.956;2023-03-31T15:49:47;6.25;;;2.30;;
12597;SDS011;6364;53.590;9.956;2023-03-31T15:54:49;4.93;;;1.60;;
12597;SDS011;6364;53.590;9.956;2023-03-31T15:57:15;4.78;;;2.28;;
12597;SDS011;6364;53.590;9.956;2023-03-31T15:59:45;7.55;;;2.20;;
12597;SDS011;6364;53.590;9.956;2023-03-31T16:02:17;2.45;;;2.03;;
12597;SDS011;6364;53.590;9.956;2023-03-31T16:04:46;6.90;;;2.30;;
12597;SDS011;6364;53.590;9.956;2023-03-31T16:07:15;3.15;;;2.35;;
12597;SDS011;6364;53.590;9.956;2023-03-31T16:09:46;5.15;;;2.33;;
12597;SDS011;6364;53.590;9.956;2023-03-31T16:12:24;5.07;;;2.20;;
12597;SDS011;6364;53.590;9.956;2023-03-31T16:15:14;3.55;;;2.25;;
12597;SDS011;6364;53.590;9.956;2023-03-31T16:17:46;4.70;;;2.88;;
12597;SDS011;6364;53.590;9.956;2023-03-31T16:20:35;2.97;;;2.42;;
12597;SDS011;6364;53.590;9.956;2023-03-31T16:23:10;4.32;;;2.33;;
12597;SDS011;6364;53.590;9.956;2023-03-31T16:25:38;3.05;;;2.45;;
12597;SDS011;6364;53.590;9.956;2023-03-31T16:28:04;4.72;;;2.65;;
12597;SDS011;6364;53.590;9.956;2023-03-31T16:30:34;3.40;;;2.80;;
12597;SDS011;6364;53.590;9.956;2023-03-31T16:33:02;24.98;;;12.73;;
12597;SDS011;6364;53.590;9.956;2023-03-31T16:35:33;14.52;;;6.85;;
12597;SDS011;6364;53.590;9.956;2023-03-31T16:38:00;8.13;;;4.13;;
12597;SDS011;6364;53.590;9.956;2023-03-31T16:40:27;5.35;;;3.50;;
12597;SDS011;6364;53.590;9.956;2023-03-31T16:43:06;5.20;;;2.95;;
12597;SDS011;6364;53.590;9.956;2023-03-31T16:45:36;4.30;;;3.42;;
12597;SDS011;6364;53.590;9.956;2023-03-31T16:48:01;7.40;;;3.70;;
12597;SDS011;6364;53.590;9.956;2023-03-31T16:50:27;5.82;;;3.60;;
12597;SDS011;6364;53.590;9.956;2023-03-31T16:52:52;4.72;;;3.38;;
12597;SDS011;6364;53.590;9.956;2023-03-31T16:55:17;5.53;;;3.53;;
12597;SDS011;6364;53.590;9.956;2023-03-31T16:57:43;4.53;;;3.40;;
12597;SDS011;6364;53.590;9.956;2023-03-31T17:00:08;4.95;;;3.35;;
12597;SDS011;6364;53.590;9.956;2023-03-31T17:02:34;7.15;;;3.22;;
12597;SDS011;6364;53.590;9.956;2023-03-31T17:05:00;5.65;;;3.53;;
12597;SDS011;6364;53.590;9.956;2023-03-31T17:07:25;4.00;;;2.90;;
12597;SDS011;6364;53.590;9.956;2023-03-31T17:09:51;5.00;;;3.47;;
12597;SDS011;6364;53.590;9.956;2023-03-31T17:12:16;5.43;;;3.40;;
12597;SDS011;6364;53.590;9.956;2023-03-31T17:14:41;6.45;;;3.45;;
12597;SDS011;6364;53.590;9.956;2023-03-31T17:17:06;6.35;;;3.33;;
12597;SDS011;6364;53.590;9.956;2023-03-31T17:19:32;5.47;;;3.85;;
12597;SDS011;6364;53.590;9.956;2023-03-31T17:21:57;5.70;;;3.55;;
12597;SDS011;6364;53.590;9.956;2023-03-31T17:24:25;5.07;;;3.53;;
12597;SDS011;6364;53.590;9.956;2023-03-31T17:26:51;5.78;;;3.85;;
12597;SDS011;6364;53.590;9.956;2023-03-31T17:29:16;5.20;;;3.80;;
12597;SDS011;6364;53.590;9.956;2023-03-31T17:31:42;20.90;;;13.52;;
12597;SDS011;6364;53.590;9.956;2023-03-31T17:34:07;7.47;;;4.72;;
12597;SDS011;6364;53.590;9.956;2023-03-31T17:36:33;5.70;;;4.35;;